createdAt,value
2019-04-27T00:00:04.125Z,84.25
2019-04-27T00:01:05.280Z,84.45
2019-04-27T00:02:05.760Z,84.45
2019-04-27T00:03:06.061Z,84.55
2019-04-27T00:04:04.194Z,83.84
2019-04-27T00:05:04.075Z,83.33
2019-04-27T00:06:07.455Z,83.06
2019-04-27T00:07:04.075Z,82.65
2019-04-27T00:08:04.045Z,82.96
2019-04-27T00:09:07.488Z,83.26
2019-04-27T00:10:04.021Z,82.65
2019-04-27T00:11:08.392Z,83.26
2019-04-27T00:12:05.636Z,82.86
2019-04-27T00:13:05.812Z,83.06
2019-04-27T00:14:03.967Z,83.16
2019-04-27T00:15:03.961Z,83.98
2019-04-27T00:16:09.720Z,83.06
2019-04-27T00:17:04.927Z,83.78
2019-04-27T00:18:03.941Z,83.47
2019-04-27T00:19:04.024Z,82.96
2019-04-27T00:20:04.429Z,83.57
2019-04-27T00:21:03.890Z,83.37
2019-04-27T00:22:03.909Z,82.86
2019-04-27T00:23:03.884Z,83.98
2019-04-27T00:24:03.874Z,83.47
2019-04-27T00:25:03.844Z,82.55
2019-04-27T00:26:03.836Z,83.26
2019-04-27T00:27:03.831Z,83.30
2019-04-27T00:28:05.398Z,82.89
2019-04-27T00:29:03.933Z,83.81
2019-04-27T00:30:04.000Z,84.01
2019-04-27T00:31:03.794Z,83.71
2019-04-27T00:32:04.265Z,83.20
2019-04-27T00:33:05.374Z,83.51
2019-04-27T00:34:03.783Z,83.00
2019-04-27T00:35:03.941Z,83.92
2019-04-27T00:36:03.737Z,83.30
2019-04-27T00:37:03.810Z,82.59
2019-04-27T00:38:03.716Z,83.20
2019-04-27T00:39:05.230Z,82.69
2019-04-27T00:40:03.714Z,82.73
2019-04-27T00:41:03.698Z,83.30
2019-04-27T00:42:03.671Z,82.59
2019-04-27T00:43:03.655Z,83.92
2019-04-27T00:44:03.656Z,83.40
2019-04-27T00:45:05.447Z,83.00
2019-04-27T00:46:04.146Z,83.40
2019-04-27T00:47:03.628Z,82.93
2019-04-27T00:48:03.720Z,82.59
2019-04-27T00:49:03.781Z,83.04
2019-04-27T00:50:03.711Z,83.34
2019-04-27T00:51:04.264Z,83.24
2019-04-27T00:52:03.745Z,84.57
2019-04-27T00:53:03.615Z,83.85
2019-04-27T00:54:04.693Z,82.89
2019-04-27T00:55:03.511Z,82.89
2019-04-27T00:56:03.949Z,82.63
2019-04-27T00:57:03.495Z,83.20
2019-04-27T00:58:04.217Z,82.39
2019-04-27T00:59:03.592Z,83.00
2019-04-27T01:00:05.121Z,82.59
2019-04-27T01:01:04.129Z,82.59
2019-04-27T01:02:03.792Z,82.49
2019-04-27T01:03:03.876Z,82.69
2019-04-27T01:04:03.829Z,82.39
2019-04-27T01:05:04.069Z,83.10
2019-04-27T01:06:03.399Z,83.00
2019-04-27T01:07:03.372Z,83.30
2019-04-27T01:08:03.885Z,82.39
2019-04-27T01:09:03.608Z,82.28
2019-04-27T01:10:05.289Z,83.14
2019-04-27T01:11:03.334Z,82.59
2019-04-27T01:12:03.693Z,82.49
2019-04-27T01:13:03.444Z,82.69
2019-04-27T01:14:03.863Z,83.20
2019-04-27T01:15:03.712Z,83.10
2019-04-27T01:16:03.281Z,83.87
2019-04-27T01:17:03.277Z,83.47
2019-04-27T01:18:11.943Z,83.16
2019-04-27T01:19:04.236Z,82.96
2019-04-27T01:20:03.245Z,83.16
2019-04-27T01:21:03.227Z,81.12
2019-04-27T01:22:03.213Z,82.69
2019-04-27T01:23:03.221Z,82.35
2019-04-27T01:24:03.200Z,82.45
2019-04-27T01:25:03.192Z,81.23
2019-04-27T01:26:03.163Z,81.77
2019-04-27T01:27:03.163Z,82.79
2019-04-27T01:28:03.143Z,82.69
2019-04-27T01:29:03.138Z,84.12
2019-04-27T01:30:03.135Z,84.94
2019-04-27T01:31:03.117Z,83.20
2019-04-27T01:32:03.097Z,83.20
2019-04-27T01:33:03.093Z,82.59
2019-04-27T01:34:03.085Z,82.24
2019-04-27T01:35:03.062Z,81.37
2019-04-27T01:36:03.053Z,82.49
2019-04-27T01:37:03.047Z,83.51
2019-04-27T01:38:03.029Z,82.55
2019-04-27T01:39:03.023Z,81.23
2019-04-27T01:40:03.009Z,81.63
2019-04-27T01:41:02.999Z,82.04
2019-04-27T01:42:03.005Z,83.87
2019-04-27T01:43:03.048Z,84.59
2019-04-27T01:44:02.963Z,83.37
2019-04-27T01:45:02.966Z,81.63
2019-04-27T01:46:02.949Z,81.02
2019-04-27T01:47:02.946Z,81.94
2019-04-27T01:48:02.923Z,81.53
2019-04-27T01:49:02.982Z,82.55
2019-04-27T01:50:02.890Z,83.16
2019-04-27T01:51:02.886Z,81.63
2019-04-27T01:52:02.887Z,82.35
2019-04-27T01:53:02.876Z,82.24
2019-04-27T01:54:02.857Z,81.70
2019-04-27T01:55:02.832Z,81.84
2019-04-27T01:56:02.822Z,81.53
2019-04-27T01:57:04.207Z,81.02
2019-04-27T01:58:02.834Z,82.96
2019-04-27T01:59:02.822Z,81.73
2019-04-27T02:00:02.780Z,81.63
2019-04-27T02:01:02.772Z,81.84
2019-04-27T02:02:02.780Z,83.06
2019-04-27T02:03:02.782Z,81.63
2019-04-27T02:04:02.740Z,81.84
2019-04-27T02:05:02.722Z,82.14
2019-04-27T02:06:02.704Z,84.69
2019-04-27T02:07:02.703Z,83.16
2019-04-27T02:08:02.710Z,82.86
2019-04-27T02:09:02.709Z,81.73
2019-04-27T02:10:02.692Z,81.43
2019-04-27T02:11:02.650Z,82.86
2019-04-27T02:12:02.638Z,83.87
2019-04-27T02:13:02.636Z,83.26
2019-04-27T02:14:02.628Z,83.16
2019-04-27T02:15:02.602Z,82.75
2019-04-27T02:16:02.636Z,83.06
2019-04-27T02:17:02.594Z,83.26
2019-04-27T02:18:02.580Z,82.31
2019-04-27T02:19:02.685Z,81.90
2019-04-27T02:20:02.561Z,82.61
2019-04-27T02:21:02.541Z,81.70
2019-04-27T02:22:02.539Z,81.43
2019-04-27T02:23:02.546Z,81.12
2019-04-27T02:24:02.518Z,81.84
2019-04-27T02:25:02.515Z,81.53
2019-04-27T02:26:02.497Z,81.43
2019-04-27T02:27:02.480Z,82.35
2019-04-27T02:28:02.460Z,81.98
2019-04-27T02:29:02.453Z,81.73
2019-04-27T02:30:02.448Z,82.55
2019-04-27T02:31:02.452Z,81.77
2019-04-27T02:32:03.073Z,82.35
2019-04-27T02:33:02.407Z,81.63
2019-04-27T02:34:02.395Z,81.43
2019-04-27T02:35:02.406Z,82.65
2019-04-27T02:36:02.379Z,81.63
2019-04-27T02:37:02.908Z,80.91
2019-04-27T02:38:02.354Z,81.23
2019-04-27T02:39:02.337Z,81.12
2019-04-27T02:40:02.327Z,81.53
2019-04-27T02:41:02.320Z,80.82
2019-04-27T02:42:02.315Z,81.23
2019-04-27T02:43:02.316Z,81.12
2019-04-27T02:44:02.464Z,81.02
2019-04-27T02:45:02.284Z,80.30
2019-04-27T02:46:02.262Z,80.41
2019-04-27T02:47:02.257Z,80.24
2019-04-27T02:48:02.243Z,80.51
2019-04-27T02:49:06.330Z,80.55
2019-04-27T02:50:03.219Z,80.61
2019-04-27T02:51:02.203Z,80.44
2019-04-27T02:52:02.226Z,80.34
2019-04-27T02:53:03.220Z,80.55
2019-04-27T02:54:02.210Z,80.55
2019-04-27T02:55:02.170Z,80.55
2019-04-27T02:56:02.156Z,81.16
2019-04-27T02:57:02.136Z,80.24
2019-04-27T02:58:02.128Z,80.34
2019-04-27T02:59:02.136Z,80.89
2019-04-27T03:00:02.115Z,80.85
2019-04-27T03:01:02.098Z,81.46
2019-04-27T03:02:02.103Z,80.44
2019-04-27T03:03:02.519Z,80.24
2019-04-27T03:04:02.074Z,80.65
2019-04-27T03:05:02.072Z,81.51
2019-04-27T03:06:02.045Z,81.30
2019-04-27T03:07:02.093Z,80.89
2019-04-27T03:08:02.065Z,81.81
2019-04-27T03:09:02.015Z,80.58
2019-04-27T03:10:02.739Z,81.51
2019-04-27T03:11:01.997Z,81.10
2019-04-27T03:12:01.970Z,80.75
2019-04-27T03:13:01.969Z,80.38
2019-04-27T03:14:01.953Z,80.38
2019-04-27T03:15:01.940Z,80.69
2019-04-27T03:16:01.986Z,80.65
2019-04-27T03:17:01.932Z,80.18
2019-04-27T03:18:01.900Z,80.18
2019-04-27T03:19:13.346Z,81.05
2019-04-27T03:20:02.880Z,80.99
2019-04-27T03:21:01.880Z,80.58
2019-04-27T03:22:01.874Z,79.97
2019-04-27T03:23:01.842Z,80.07
2019-04-27T03:24:01.827Z,80.79
2019-04-27T03:25:01.907Z,80.48
2019-04-27T03:26:01.811Z,80.04
2019-04-27T03:27:01.811Z,79.57
2019-04-27T03:28:02.498Z,80.34
2019-04-27T03:29:01.786Z,79.93
2019-04-27T03:30:01.797Z,79.12
2019-04-27T03:31:02.825Z,78.91
2019-04-27T03:32:02.189Z,78.50
2019-04-27T03:33:03.381Z,78.61
2019-04-27T03:34:05.383Z,79.22
2019-04-27T03:35:03.144Z,79.22
2019-04-27T03:36:02.874Z,78.81
2019-04-27T03:37:01.695Z,78.61
2019-04-27T03:38:01.685Z,78.20
2019-04-27T03:39:01.670Z,79.57
2019-04-27T03:40:01.650Z,78.61
2019-04-27T03:41:01.648Z,79.73
2019-04-27T03:42:01.629Z,79.12
2019-04-27T03:43:01.619Z,78.61
2019-04-27T03:44:01.618Z,78.61
2019-04-27T03:45:01.598Z,79.52
2019-04-27T03:46:01.603Z,77.89
2019-04-27T03:47:01.591Z,78.50
2019-04-27T03:48:01.574Z,78.61
2019-04-27T03:49:01.559Z,77.89
2019-04-27T03:50:01.554Z,79.12
2019-04-27T03:51:01.583Z,78.13
2019-04-27T03:52:03.086Z,79.52
2019-04-27T03:53:01.542Z,79.05
2019-04-27T03:54:01.494Z,78.50
2019-04-27T03:55:01.493Z,78.61
2019-04-27T03:56:01.485Z,78.23
2019-04-27T03:57:02.418Z,79.16
2019-04-27T03:58:01.446Z,79.57
2019-04-27T03:59:01.443Z,79.25
2019-04-27T04:00:01.446Z,79.05
2019-04-27T04:01:01.425Z,79.25
2019-04-27T04:02:02.430Z,78.61
2019-04-27T04:03:01.393Z,79.93
2019-04-27T04:04:01.385Z,79.36
2019-04-27T04:05:01.399Z,78.34
2019-04-27T04:06:01.373Z,78.81
2019-04-27T04:07:01.363Z,79.36
2019-04-27T04:08:01.333Z,78.75
2019-04-27T04:09:01.324Z,79.46
2019-04-27T04:10:01.361Z,78.64
2019-04-27T04:11:01.305Z,79.05
2019-04-27T04:12:02.261Z,79.66
2019-04-27T04:13:01.864Z,79.77
2019-04-27T04:14:01.279Z,78.75
2019-04-27T04:15:01.255Z,78.85
2019-04-27T04:16:01.255Z,78.95
2019-04-27T04:17:02.797Z,79.52
2019-04-27T04:18:01.254Z,78.95
2019-04-27T04:19:01.341Z,78.20
2019-04-27T04:20:01.845Z,78.50
2019-04-27T04:21:01.193Z,78.91
2019-04-27T04:22:01.185Z,78.50
2019-04-27T04:23:03.400Z,78.41
2019-04-27T04:24:01.498Z,78.71
2019-04-27T04:25:01.168Z,78.30
2019-04-27T04:26:01.131Z,78.50
2019-04-27T04:27:01.123Z,78.13
2019-04-27T04:28:01.120Z,79.16
2019-04-27T04:29:01.147Z,79.25
2019-04-27T04:30:01.115Z,79.46
2019-04-27T04:31:01.083Z,79.16
2019-04-27T04:32:01.071Z,80.28
2019-04-27T04:33:01.080Z,79.77
2019-04-27T04:34:01.075Z,80.28
2019-04-27T04:35:01.465Z,79.87
2019-04-27T04:36:01.029Z,79.57
2019-04-27T04:37:01.026Z,80.07
2019-04-27T04:38:01.006Z,79.66
2019-04-27T04:39:00.998Z,79.43
2019-04-27T04:40:00.992Z,79.12
2019-04-27T04:41:00.971Z,79.63
2019-04-27T04:42:00.967Z,78.61
2019-04-27T04:43:03.379Z,78.61
2019-04-27T04:44:00.937Z,78.50
2019-04-27T04:45:00.933Z,78.61
2019-04-27T04:46:00.924Z,79.32
2019-04-27T04:47:00.929Z,79.02
2019-04-27T04:48:00.898Z,79.22
2019-04-27T04:49:00.880Z,79.32
2019-04-27T04:50:11.335Z,78.71
2019-04-27T04:51:01.848Z,78.61
2019-04-27T04:52:00.842Z,78.50
2019-04-27T04:53:00.833Z,78.50
2019-04-27T04:54:00.825Z,78.00
2019-04-27T04:55:02.596Z,78.64
2019-04-27T04:56:00.809Z,79.36
2019-04-27T04:57:00.800Z,79.43
2019-04-27T04:58:00.780Z,79.25
2019-04-27T04:59:00.774Z,79.25
2019-04-27T05:00:00.756Z,79.57
2019-04-27T05:01:01.937Z,80.28
2019-04-27T05:02:02.458Z,79.93
2019-04-27T05:03:00.731Z,79.93
2019-04-27T05:04:00.705Z,79.73
2019-04-27T05:05:00.709Z,79.12
2019-04-27T05:06:00.687Z,78.50
2019-04-27T05:07:00.686Z,79.97
2019-04-27T05:08:00.872Z,79.66
2019-04-27T05:09:00.669Z,80.34
2019-04-27T05:10:00.638Z,80.48
2019-04-27T05:11:00.634Z,79.73
2019-04-27T05:12:00.629Z,81.37
2019-04-27T05:14:09.860Z,80.24
2019-04-27T05:15:09.351Z,79.49
2019-04-27T05:16:51.495Z,79.52
2019-04-27T05:17:51.485Z,79.18
2019-04-27T05:18:51.466Z,78.67
2019-04-27T05:19:51.455Z,78.61
2019-04-27T05:20:51.449Z,78.61
2019-04-27T05:21:51.435Z,78.50
2019-04-27T05:22:51.431Z,78.50
2019-04-27T05:23:51.415Z,79.28
2019-04-27T05:24:51.413Z,78.67
2019-04-27T05:25:51.397Z,79.63
2019-04-27T05:26:51.378Z,79.32
2019-04-27T05:27:51.369Z,78.57
2019-04-27T05:28:51.359Z,78.16
2019-04-27T05:29:51.356Z,77.86
2019-04-27T05:30:51.339Z,78.67
2019-04-27T05:31:51.377Z,78.37
2019-04-27T05:32:51.311Z,78.77
2019-04-27T05:33:51.307Z,78.16
2019-04-27T05:34:51.293Z,78.67
2019-04-27T05:35:51.285Z,79.39
2019-04-27T05:36:52.539Z,78.84
2019-04-27T05:37:51.265Z,78.47
2019-04-27T05:38:51.245Z,79.28
2019-04-27T05:39:51.246Z,79.18
2019-04-27T05:40:51.246Z,79.39
2019-04-27T05:41:51.216Z,79.04
2019-04-27T05:42:55.244Z,79.08
2019-04-27T05:43:52.193Z,79.08
2019-04-27T05:44:51.196Z,78.98
2019-04-27T05:45:53.207Z,78.57
2019-04-27T05:46:52.159Z,78.33
2019-04-27T05:47:51.979Z,78.67
2019-04-27T05:48:51.139Z,78.06
2019-04-27T05:49:51.123Z,77.41
2019-04-27T05:50:58.279Z,78.16
2019-04-27T05:51:52.102Z,78.23
2019-04-27T05:52:51.094Z,77.96
2019-04-27T05:53:51.079Z,77.96
2019-04-27T05:54:51.068Z,78.47
2019-04-27T05:55:51.057Z,78.53
2019-04-27T05:56:51.042Z,77.86
2019-04-27T05:57:51.036Z,78.88
2019-04-27T05:58:51.233Z,78.33
2019-04-27T05:59:51.012Z,77.31
2019-04-27T06:00:51.008Z,77.62
2019-04-27T06:01:50.991Z,78.06
2019-04-27T06:02:50.993Z,77.04
2019-04-27T06:03:50.975Z,77.55
2019-04-27T06:04:50.958Z,77.65
2019-04-27T06:05:50.946Z,77.31
2019-04-27T06:06:50.940Z,77.51
2019-04-27T06:07:50.933Z,77.72
2019-04-27T06:08:50.920Z,77.58
2019-04-27T06:09:50.902Z,77.82
2019-04-27T06:10:50.893Z,76.46
2019-04-27T06:11:50.881Z,76.05
2019-04-27T06:12:50.867Z,75.85
2019-04-27T06:13:50.871Z,75.44
2019-04-27T06:14:50.843Z,76.05
2019-04-27T06:15:50.840Z,76.15
2019-04-27T06:16:51.396Z,76.25
2019-04-27T06:17:50.818Z,76.19
2019-04-27T06:18:50.811Z,75.34
2019-04-27T06:19:50.790Z,75.98
2019-04-27T06:20:55.571Z,76.05
2019-04-27T06:21:51.766Z,75.34
2019-04-27T06:22:50.762Z,75.03
2019-04-27T06:23:50.749Z,75.44
2019-04-27T06:24:54.378Z,75.64
2019-04-27T06:25:50.724Z,74.79
2019-04-27T06:26:50.711Z,74.79
2019-04-27T06:27:50.702Z,74.18
2019-04-27T06:28:50.681Z,74.58
2019-04-27T06:29:50.677Z,74.58
2019-04-27T06:30:50.665Z,74.08
2019-04-27T06:31:50.651Z,74.86
2019-04-27T06:32:50.644Z,74.69
2019-04-27T06:33:50.629Z,74.25
2019-04-27T06:34:50.628Z,74.55
2019-04-27T06:35:50.607Z,73.54
2019-04-27T06:36:50.598Z,74.18
2019-04-27T06:37:50.585Z,74.79
2019-04-27T06:38:50.570Z,75.20
2019-04-27T06:39:50.567Z,75.30
2019-04-27T06:40:50.556Z,75.16
2019-04-27T06:41:50.541Z,74.55
2019-04-27T06:42:50.531Z,74.86
2019-04-27T06:43:50.523Z,74.04
2019-04-27T06:44:50.511Z,74.76
2019-04-27T06:45:50.495Z,74.65
2019-04-27T06:46:50.484Z,75.06
2019-04-27T06:47:51.254Z,75.27
2019-04-27T06:48:50.466Z,76.28
2019-04-27T06:49:50.452Z,75.98
2019-04-27T06:51:02.678Z,76.28
2019-04-27T06:51:51.429Z,76.18
2019-04-27T06:52:50.415Z,76.76
2019-04-27T06:53:50.410Z,75.84
2019-04-27T06:54:50.396Z,75.54
2019-04-27T06:55:50.383Z,75.23
2019-04-27T06:56:50.375Z,76.45
2019-04-27T06:57:50.358Z,75.95
2019-04-27T06:58:50.353Z,75.84
2019-04-27T06:59:50.718Z,76.21
2019-04-27T07:00:50.359Z,76.45
2019-04-27T07:01:50.320Z,75.81
2019-04-27T07:02:50.319Z,77.33
2019-04-27T07:03:50.298Z,75.91
2019-04-27T07:04:50.287Z,76.01
2019-04-27T07:05:50.277Z,74.69
2019-04-27T07:06:53.939Z,73.97
2019-04-27T07:07:51.249Z,75.20
2019-04-27T07:08:50.243Z,74.58
2019-04-27T07:09:50.232Z,74.79
2019-04-27T07:10:50.222Z,74.79
2019-04-27T07:11:50.213Z,74.58
2019-04-27T07:12:50.203Z,74.72
2019-04-27T07:13:50.189Z,74.89
2019-04-27T07:14:52.964Z,74.72
2019-04-27T07:15:50.161Z,76.45
2019-04-27T07:16:50.779Z,76.25
2019-04-27T07:17:50.148Z,75.23
2019-04-27T07:18:50.477Z,76.15
2019-04-27T07:19:50.126Z,76.21
2019-04-27T07:20:50.107Z,74.89
2019-04-27T07:21:50.096Z,74.18
2019-04-27T07:22:50.106Z,74.08
2019-04-27T07:23:50.081Z,74.69
2019-04-27T07:24:50.075Z,73.97
2019-04-27T07:25:50.057Z,73.94
2019-04-27T07:26:50.051Z,73.63
2019-04-27T07:27:50.031Z,73.60
2019-04-27T07:28:50.022Z,73.54
2019-04-27T07:29:50.009Z,73.39
2019-04-27T07:30:50.002Z,73.30
2019-04-27T07:31:49.992Z,72.99
2019-04-27T07:32:49.986Z,73.19
2019-04-27T07:33:49.964Z,73.60
2019-04-27T07:34:49.955Z,72.99
2019-04-27T07:35:49.951Z,73.30
2019-04-27T07:36:49.935Z,72.58
2019-04-27T07:37:49.923Z,72.69
2019-04-27T07:38:52.314Z,72.55
2019-04-27T07:39:49.910Z,72.85
2019-04-27T07:40:49.893Z,72.96
2019-04-27T07:41:49.886Z,71.84
2019-04-27T07:42:49.869Z,71.33
2019-04-27T07:43:49.871Z,71.64
2019-04-27T07:44:50.112Z,72.55
2019-04-27T07:45:49.834Z,72.65
2019-04-27T07:46:49.920Z,72.25
2019-04-27T07:47:49.823Z,72.14
2019-04-27T07:48:50.918Z,71.73
2019-04-27T07:49:49.883Z,72.21
2019-04-27T07:50:49.801Z,71.84
2019-04-27T07:51:49.784Z,71.64
2019-04-27T07:52:49.757Z,71.80
2019-04-27T07:53:49.775Z,71.30
2019-04-27T07:54:49.744Z,70.79
2019-04-27T07:55:49.726Z,70.99
2019-04-27T07:56:49.725Z,70.79
2019-04-27T07:57:49.712Z,70.08
2019-04-27T07:58:49.689Z,70.89
2019-04-27T07:59:50.283Z,70.38
2019-04-27T08:00:51.042Z,70.28
2019-04-27T08:01:49.679Z,71.03
2019-04-27T08:02:49.656Z,71.12
2019-04-27T08:03:49.638Z,71.33
2019-04-27T08:04:50.489Z,71.09
2019-04-27T08:05:49.614Z,71.20
2019-04-27T08:06:49.722Z,70.59
2019-04-27T08:07:49.594Z,70.79
2019-04-27T08:08:49.635Z,70.08
2019-04-27T08:09:49.864Z,70.28
2019-04-27T08:10:50.215Z,70.31
2019-04-27T08:11:49.549Z,70.79
2019-04-27T08:12:49.903Z,70.89
2019-04-27T08:13:49.531Z,71.09
2019-04-27T08:14:49.524Z,71.06
2019-04-27T08:15:49.734Z,70.65
2019-04-27T08:16:49.501Z,70.76
2019-04-27T08:17:49.487Z,69.64
2019-04-27T08:18:51.611Z,69.64
2019-04-27T08:19:49.757Z,69.74
2019-04-27T08:20:49.453Z,70.15
2019-04-27T08:21:49.903Z,70.35
2019-04-27T08:22:49.758Z,71.09
2019-04-27T08:23:49.418Z,69.98
2019-04-27T08:24:49.846Z,70.68
2019-04-27T08:25:49.435Z,71.20
2019-04-27T08:26:49.960Z,70.99
2019-04-27T08:27:49.436Z,70.76
2019-04-27T08:28:49.379Z,71.67
2019-04-27T08:29:49.353Z,70.15
2019-04-27T08:30:49.350Z,70.15
2019-04-27T08:31:49.331Z,70.35
2019-04-27T08:32:49.837Z,70.76
2019-04-27T08:33:49.313Z,70.65
2019-04-27T08:34:49.671Z,70.45
2019-04-27T08:35:49.298Z,70.25
2019-04-27T08:36:49.928Z,70.35
2019-04-27T08:37:49.651Z,70.76
2019-04-27T08:38:49.250Z,70.76
2019-04-27T08:39:51.047Z,70.86
2019-04-27T08:40:49.497Z,70.76
2019-04-27T08:41:49.539Z,71.16
2019-04-27T08:42:51.329Z,70.76
2019-04-27T08:43:49.196Z,71.13
2019-04-27T08:44:49.737Z,70.11
2019-04-27T08:45:49.176Z,69.91
2019-04-27T08:46:49.567Z,69.40
2019-04-27T08:47:49.882Z,69.71
2019-04-27T08:48:49.181Z,70.72
2019-04-27T08:49:49.300Z,70.92
2019-04-27T08:50:49.133Z,70.48
2019-04-27T08:51:57.177Z,69.47
2019-04-27T08:52:50.428Z,69.07
2019-04-27T08:53:50.173Z,69.03
2019-04-27T08:54:50.850Z,68.63
2019-04-27T08:55:50.372Z,66.67
2019-04-27T08:56:49.538Z,66.91
2019-04-27T08:57:49.227Z,68.09
2019-04-27T08:58:49.665Z,67.18
2019-04-27T08:59:51.040Z,66.77
2019-04-27T09:00:49.171Z,67.68
2019-04-27T09:01:49.323Z,68.70
2019-04-27T09:02:50.329Z,68.40
2019-04-27T09:03:49.550Z,65.83
2019-04-27T09:04:49.547Z,65.62
2019-04-27T09:05:49.159Z,65.93
2019-04-27T09:06:49.383Z,65.32
2019-04-27T09:07:49.652Z,65.32
2019-04-27T09:08:49.616Z,65.42
2019-04-27T09:09:49.824Z,65.42
2019-04-27T09:10:49.029Z,64.85
2019-04-27T09:11:49.387Z,65.45
2019-04-27T09:12:50.070Z,66.06
2019-04-27T09:13:48.874Z,65.05
2019-04-27T09:14:49.463Z,66.77
2019-04-27T09:15:49.439Z,65.86
2019-04-27T09:16:59.709Z,65.56
2019-04-27T09:17:49.831Z,65.05
2019-04-27T09:18:49.825Z,65.36
2019-04-27T09:19:49.203Z,65.76
2019-04-27T09:20:49.154Z,65.76
2019-04-27T09:21:48.782Z,65.96
2019-04-27T09:22:49.307Z,66.54
2019-04-27T09:23:48.961Z,64.92
2019-04-27T09:24:49.436Z,64.38
2019-04-27T09:25:49.606Z,63.98
2019-04-27T09:26:49.202Z,62.66
2019-04-27T09:27:49.277Z,62.76
2019-04-27T09:28:49.270Z,62.46
2019-04-27T09:29:49.936Z,62.86
2019-04-27T09:30:49.786Z,60.74
2019-04-27T09:31:49.104Z,60.41
2019-04-27T09:32:48.656Z,59.72
2019-04-27T09:33:48.648Z,60.91
2019-04-27T09:34:48.650Z,60.41
2019-04-27T09:35:48.628Z,60.91
2019-04-27T09:36:48.620Z,61.11
2019-04-27T09:37:48.603Z,61.11
2019-04-27T09:38:48.592Z,61.01
2019-04-27T09:39:48.585Z,60.71
2019-04-27T09:40:48.574Z,60.68
2019-04-27T09:41:48.560Z,58.25
2019-04-27T09:42:48.548Z,56.73
2019-04-27T09:43:48.541Z,55.93
2019-04-27T09:44:48.526Z,56.94
2019-04-27T09:45:48.595Z,55.42
2019-04-27T09:46:48.524Z,56.26
2019-04-27T09:47:48.499Z,56.43
2019-04-27T09:48:48.481Z,55.24
2019-04-27T09:49:48.478Z,56.15
2019-04-27T09:50:48.469Z,56.96
2019-04-27T09:51:48.463Z,57.17
2019-04-27T09:52:48.438Z,56.05
2019-04-27T09:53:48.457Z,57.17
2019-04-27T09:54:48.417Z,56.26
2019-04-27T09:55:48.401Z,57.34
2019-04-27T09:56:48.397Z,56.84
2019-04-27T09:57:48.396Z,55.82
2019-04-27T09:58:48.373Z,54.82
2019-04-27T09:59:48.359Z,54.71
2019-04-27T10:00:48.350Z,55.42
2019-04-27T10:01:48.340Z,55.42
2019-04-27T10:02:48.342Z,53.30
2019-04-27T10:03:48.326Z,53.60
2019-04-27T10:04:48.338Z,53.80
2019-04-27T10:05:48.293Z,53.60
2019-04-27T10:06:48.834Z,53.70
2019-04-27T10:07:48.273Z,54.00
2019-04-27T10:08:48.272Z,53.50
2019-04-27T10:09:48.266Z,54.69
2019-04-27T10:10:48.238Z,54.61
2019-04-27T10:11:48.227Z,53.47
2019-04-27T10:12:48.219Z,53.17
2019-04-27T10:13:48.202Z,53.78
2019-04-27T10:14:48.197Z,53.88
2019-04-27T10:15:48.186Z,53.78
2019-04-27T10:16:48.172Z,54.56
2019-04-27T10:17:48.162Z,54.16
2019-04-27T10:18:48.146Z,53.96
2019-04-27T10:19:48.145Z,53.65
2019-04-27T10:20:59.032Z,54.46
2019-04-27T10:21:49.114Z,54.63
2019-04-27T10:22:48.162Z,53.93
2019-04-27T10:23:48.098Z,52.84
2019-04-27T10:24:48.082Z,53.34
2019-04-27T10:25:48.101Z,53.96
2019-04-27T10:26:48.065Z,53.65
2019-04-27T10:27:48.051Z,54.53
2019-04-27T10:28:48.035Z,53.14
2019-04-27T10:29:48.030Z,53.45
2019-04-27T10:30:48.017Z,54.43
2019-04-27T10:31:48.219Z,53.72
2019-04-27T10:32:47.997Z,53.42
2019-04-27T10:33:47.984Z,55.34
2019-04-27T10:34:47.976Z,54.71
2019-04-27T10:35:47.957Z,54.91
2019-04-27T10:36:47.954Z,53.40
2019-04-27T10:37:47.931Z,53.50
2019-04-27T10:38:47.925Z,53.20
2019-04-27T10:39:47.920Z,53.50
2019-04-27T10:40:47.901Z,53.70
2019-04-27T10:41:47.902Z,53.70
2019-04-27T10:42:47.886Z,53.30
2019-04-27T10:43:47.866Z,51.28
2019-04-27T10:44:47.859Z,51.18
2019-04-27T10:45:47.848Z,52.59
2019-04-27T10:46:47.845Z,51.18
2019-04-27T10:47:49.511Z,51.18
2019-04-27T10:48:47.826Z,52.09
2019-04-27T10:49:48.490Z,53.40
2019-04-27T10:50:47.801Z,52.87
2019-04-27T10:51:47.785Z,52.36
2019-04-27T10:52:53.643Z,53.05
2019-04-27T10:53:48.756Z,51.28
2019-04-27T10:54:47.747Z,51.46
2019-04-27T10:55:47.738Z,49.85
2019-04-27T10:56:47.723Z,51.06
2019-04-27T10:57:47.721Z,50.05
2019-04-27T10:58:47.725Z,47.61
2019-04-27T10:59:47.698Z,48.32
2019-04-27T11:00:47.676Z,48.01
2019-04-27T11:01:47.679Z,48.72
2019-04-27T11:02:47.666Z,47.89
2019-04-27T11:03:47.663Z,47.69
2019-04-27T11:04:47.639Z,46.30
2019-04-27T11:05:47.628Z,47.41
2019-04-27T11:06:47.621Z,48.79
2019-04-27T11:07:47.605Z,46.03
2019-04-27T11:08:48.357Z,46.73
2019-04-27T11:09:47.586Z,45.95
2019-04-27T11:10:47.582Z,46.15
2019-04-27T11:11:47.576Z,47.36
2019-04-27T11:12:47.548Z,46.44
2019-04-27T11:13:47.538Z,44.67
2019-04-27T11:14:47.538Z,41.85
2019-04-27T11:15:47.514Z,42.16
2019-04-27T11:16:47.520Z,41.19
2019-04-27T11:17:47.706Z,41.23
2019-04-27T11:18:47.481Z,42.88
2019-04-27T11:19:47.477Z,44.40
2019-04-27T11:20:47.471Z,44.02
2019-04-27T11:21:47.451Z,45.55
2019-04-27T11:22:47.437Z,44.85
2019-04-27T11:23:47.436Z,45.90
2019-04-27T11:24:47.966Z,46.40
2019-04-27T11:25:47.407Z,46.20
2019-04-27T11:26:47.397Z,47.20
2019-04-27T11:27:47.379Z,47.00
2019-04-27T11:28:47.378Z,46.10
2019-04-27T11:29:47.364Z,45.75
2019-04-27T11:30:47.358Z,44.12
2019-04-27T11:31:47.341Z,43.10
2019-04-27T11:32:47.335Z,43.16
2019-04-27T11:33:47.331Z,43.06
2019-04-27T11:34:47.317Z,42.35
2019-04-27T11:35:47.301Z,42.13
2019-04-27T11:36:47.288Z,42.33
2019-04-27T11:37:47.282Z,42.16
2019-04-27T11:38:47.265Z,42.47
2019-04-27T11:39:47.253Z,43.80
2019-04-27T11:40:47.239Z,44.20
2019-04-27T11:41:47.230Z,44.63
2019-04-27T11:42:47.215Z,44.32
2019-04-27T11:43:47.206Z,45.03
2019-04-27T11:44:47.192Z,46.34
2019-04-27T11:45:47.183Z,45.31
2019-04-27T11:46:47.493Z,42.54
2019-04-27T11:47:47.173Z,41.39
2019-04-27T11:48:47.158Z,40.15
2019-04-27T11:49:47.140Z,39.33
2019-04-27T11:50:47.127Z,38.78
2019-04-27T11:51:47.119Z,37.40
2019-04-27T11:52:47.108Z,39.01
2019-04-27T11:53:47.097Z,39.00
2019-04-27T11:54:47.087Z,37.68
2019-04-27T11:55:47.070Z,38.79
2019-04-27T11:56:47.283Z,37.59
2019-04-27T11:57:47.185Z,37.68
2019-04-27T11:58:48.735Z,37.70
2019-04-27T11:59:47.027Z,38.23
2019-04-27T12:00:47.029Z,39.45
2019-04-27T12:01:47.009Z,38.97
2019-04-27T12:02:46.997Z,38.89
2019-04-27T12:03:46.989Z,39.71
2019-04-27T12:04:46.979Z,39.75
2019-04-27T12:05:46.965Z,41.17
2019-04-27T12:06:46.961Z,41.37
2019-04-27T12:07:47.832Z,41.89
2019-04-27T12:08:46.934Z,42.49
2019-04-27T12:09:48.082Z,42.32
2019-04-27T12:10:48.389Z,43.95
2019-04-27T12:11:46.904Z,43.42
2019-04-27T12:12:46.887Z,44.32
2019-04-27T12:13:46.875Z,42.41
2019-04-27T12:14:47.482Z,42.11
2019-04-27T12:15:46.857Z,42.01
2019-04-27T12:16:49.003Z,43.52
2019-04-27T12:17:46.831Z,42.44
2019-04-27T12:18:48.898Z,43.82
2019-04-27T12:19:46.811Z,42.52
2019-04-27T12:20:46.809Z,43.12
2019-04-27T12:21:46.787Z,42.92
2019-04-27T12:22:46.782Z,42.30
2019-04-27T12:23:47.287Z,42.60
2019-04-27T12:24:46.757Z,42.30
2019-04-27T12:25:46.759Z,42.19
2019-04-27T12:26:46.729Z,42.10
2019-04-27T12:27:46.717Z,42.10
2019-04-27T12:28:46.709Z,42.60
2019-04-27T12:29:47.329Z,41.89
2019-04-27T12:30:46.685Z,42.30
2019-04-27T12:31:49.038Z,43.00
2019-04-27T12:32:46.671Z,41.99
2019-04-27T12:33:46.653Z,42.10
2019-04-27T12:34:46.639Z,41.79
2019-04-27T12:35:48.323Z,41.69
2019-04-27T12:36:46.622Z,41.29
2019-04-27T12:37:46.607Z,41.29
2019-04-27T12:38:46.798Z,40.99
2019-04-27T12:39:46.585Z,41.71
2019-04-27T12:40:46.680Z,42.11
2019-04-27T12:41:46.570Z,42.32
2019-04-27T12:42:46.560Z,42.54
2019-04-27T12:43:46.543Z,41.83
2019-04-27T12:44:46.537Z,43.24
2019-04-27T12:45:46.518Z,43.84
2019-04-27T12:46:46.511Z,44.04
2019-04-27T12:47:46.553Z,43.84
2019-04-27T12:48:46.488Z,43.96
2019-04-27T12:49:46.476Z,42.66
2019-04-27T12:50:46.461Z,43.66
2019-04-27T12:51:46.451Z,42.46
2019-04-27T12:52:46.447Z,42.35
2019-04-27T12:53:50.648Z,43.16